Time;durP1;ratioP1;P1;durP2;ratioP2;P2;SDS_P1;SDS_P2;PMS_P1;PMS_P2;Temp;Humidity;BMP_temperature;BMP_pressure;BME280_temperature;BME280_humidity;BME280_pressure;Samples;Min_cycle;Max_cycle;Signal;HPM_P1;HPM_P2
2022/07/07 00:00:20;;;;;;;12.10;7.93;;;16.90;99.90;;;;;;5013785;28;20041;-62
2022/07/07 00:02:46;;;;;;;11.02;8.18;;;17.10;99.90;;;;;;5013426;28;20037;-62
2022/07/07 00:05:11;;;;;;;11.00;7.68;;;16.90;99.90;;;;;;5013710;28;20073;-62
2022/07/07 00:07:37;;;;;;;15.45;7.70;;;17.00;99.90;;;;;;5023745;28;20388;-62
2022/07/07 00:10:04;;;;;;;13.50;8.90;;;16.80;99.90;;;;;;5032228;28;20043;-62
2022/07/07 00:12:29;;;;;;;12.85;8.30;;;16.70;99.90;;;;;;5013786;28;20117;-62
2022/07/07 00:14:55;;;;;;;14.13;9.15;;;16.70;99.90;;;;;;5024603;28;20159;-62
2022/07/07 00:17:21;;;;;;;13.00;9.38;;;18.30;99.90;;;;;;5019142;28;20484;-62
2022/07/07 00:19:47;;;;;;;13.20;7.85;;;16.90;99.90;;;;;;5024084;28;20048;-62
2022/07/07 00:22:12;;;;;;;11.23;7.03;;;17.00;99.90;;;;;;5013379;28;20045;-62
2022/07/07 00:24:38;;;;;;;11.32;7.47;;;17.00;99.90;;;;;;5031897;28;20483;-64
2022/07/07 00:27:04;;;;;;;13.82;7.47;;;16.90;99.90;;;;;;5018562;28;20057;-62
2022/07/07 00:29:30;;;;;;;15.27;7.38;;;16.80;99.90;;;;;;5031206;28;20052;-62
2022/07/07 00:31:55;;;;;;;12.27;7.43;;;17.00;99.90;;;;;;5021513;28;20056;-62
2022/07/07 00:34:21;;;;;;;12.73;7.25;;;16.90;99.90;;;;;;5013075;28;20045;-62
2022/07/07 00:36:47;;;;;;;12.20;6.28;;;18.10;99.90;;;;;;5021409;28;20044;-62
2022/07/07 00:39:13;;;;;;;10.13;5.95;;;16.80;99.90;;;;;;5017312;28;20137;-62
2022/07/07 00:41:39;;;;;;;9.75;5.90;;;16.70;99.90;;;;;;4995269;28;20125;-62
2022/07/07 00:44:06;;;;;;;7.47;5.32;;;16.90;99.90;;;;;;5014651;28;20383;-62
2022/07/07 00:46:43;;;;;;;9.13;5.10;;;16.90;99.90;;;;;;5021662;28;20068;-63
2022/07/07 00:49:10;;;;;;;8.93;4.70;;;16.90;99.90;;;;;;5025485;28;20050;-63
2022/07/07 00:51:36;;;;;;;8.68;4.50;;;16.70;99.90;;;;;;5024589;28;20042;-63
2022/07/07 00:54:01;;;;;;;10.45;3.90;;;16.80;99.90;;;;;;5036507;28;20049;-62
2022/07/07 00:56:27;;;;;;;9.18;4.00;;;16.90;99.90;;;;;;5028107;28;20488;-63
2022/07/07 00:58:52;;;;;;;6.82;3.30;;;16.80;99.90;;;;;;5018314;28;20117;-62
2022/07/07 01:01:18;;;;;;;7.30;3.00;;;16.70;99.90;;;;;;5018699;28;20038;-63
2022/07/07 01:03:43;;;;;;;8.02;3.13;;;16.70;99.90;;;;;;5028602;28;20155;-63
2022/07/07 01:06:10;;;;;;;8.10;2.90;;;16.60;99.90;;;;;;5020880;28;20038;-63
2022/07/07 01:08:36;;;;;;;8.90;2.80;;;16.60;99.90;;;;;;5002527;28;20056;-63
2022/07/07 01:11:03;;;;;;;11.40;3.28;;;;;;;;;;5034172;28;20053;-63
2022/07/07 01:13:29;;;;;;;9.10;2.80;;;;;;;;;;5025338;28;20056;-63
2022/07/07 01:15:54;;;;;;;10.88;3.17;;;16.60;99.90;;;;;;5040903;28;20049;-63
2022/07/07 01:18:20;;;;;;;7.93;2.97;;;16.70;99.90;;;;;;5038786;28;20038;-63
2022/07/07 01:20:47;;;;;;;8.00;3.00;;;16.70;99.90;;;;;;5041816;28;20134;-63
2022/07/07 01:23:14;;;;;;;9.50;2.78;;;16.70;99.90;;;;;;5011185;28;20058;-63
2022/07/07 01:25:39;;;;;;;7.78;2.72;;;16.50;99.90;;;;;;5025019;28;20049;-63
2022/07/07 01:28:05;;;;;;;7.13;3.28;;;16.60;99.90;;;;;;5040339;28;20042;-63
2022/07/07 01:30:31;;;;;;;4.43;2.63;;;16.70;99.90;;;;;;5044653;28;20045;-63
2022/07/07 01:32:56;;;;;;;7.55;3.15;;;16.60;99.90;;;;;;5046213;28;20049;-63
2022/07/07 01:35:22;;;;;;;9.50;2.90;;;16.50;99.90;;;;;;5027812;28;20042;-63
2022/07/07 01:37:48;;;;;;;6.50;3.15;;;16.50;99.90;;;;;;5026343;28;20044;-63
2022/07/07 01:40:13;;;;;;;5.20;2.97;;;16.50;99.90;;;;;;5039489;28;20050;-63
2022/07/07 01:42:39;;;;;;;7.05;2.95;;;16.40;99.90;;;;;;5025866;28;20041;-63
2022/07/07 01:45:05;;;;;;;7.00;3.20;;;16.50;99.90;;;;;;5026589;28;20415;-63
2022/07/07 01:47:31;;;;;;;7.93;3.05;;;16.50;99.90;;;;;;5032515;28;20051;-63
2022/07/07 01:49:57;;;;;;;6.07;3.13;;;16.40;99.90;;;;;;5030808;28;20045;-64
2022/07/07 01:52:22;;;;;;;6.28;3.08;;;17.60;99.90;;;;;;5028153;28;20455;-63
2022/07/07 01:54:48;;;;;;;7.80;3.80;;;16.60;99.90;;;;;;5016721;28;20069;-63
2022/07/07 01:57:15;;;;;;;5.15;2.85;;;17.20;99.90;;;;;;5038909;28;20045;-63
2022/07/07 01:59:40;;;;;;;7.53;3.33;;;16.70;99.90;;;;;;5015456;28;20451;-63
2022/07/07 02:02:06;;;;;;;5.47;3.17;;;16.60;99.90;;;;;;5031531;28;20069;-63
2022/07/07 02:04:31;;;;;;;8.05;2.78;;;16.60;99.90;;;;;;5039958;28;20038;-63
2022/07/07 02:06:57;;;;;;;7.90;3.50;;;16.50;99.90;;;;;;5037119;28;20123;-62
2022/07/07 02:09:23;;;;;;;10.10;3.70;;;16.50;99.90;;;;;;5043980;28;20037;-63
2022/07/07 02:11:49;;;;;;;5.03;3.25;;;;;;;;;;5044192;28;20048;-63
2022/07/07 02:14:14;;;;;;;7.68;2.92;;;16.40;99.90;;;;;;5041897;28;20041;-63
2022/07/07 02:16:40;;;;;;;4.72;3.17;;;16.40;99.90;;;;;;5032020;28;20121;-63
2022/07/07 02:19:07;;;;;;;8.32;3.58;;;16.70;99.90;;;;;;5044535;28;20033;-63
2022/07/07 02:21:33;;;;;;;7.90;2.95;;;16.40;99.90;;;;;;5009424;28;20041;-63
2022/07/07 02:23:59;;;;;;;4.47;3.40;;;16.60;99.90;;;;;;5036811;28;20496;-63
2022/07/07 02:26:25;;;;;;;5.65;2.72;;;16.40;99.90;;;;;;5026849;28;20041;-62
2022/07/07 02:28:51;;;;;;;8.57;3.20;;;16.40;99.90;;;;;;5034455;28;20139;-62
2022/07/07 02:31:17;;;;;;;5.93;3.58;;;16.50;99.90;;;;;;5030281;28;20045;-63
2022/07/07 02:33:43;;;;;;;7.53;3.53;;;16.50;99.90;;;;;;5013291;28;20415;-63
2022/07/07 02:36:10;;;;;;;6.10;3.70;;;16.40;99.90;;;;;;5015202;28;20081;-63
2022/07/07 02:38:37;;;;;;;10.45;3.72;;;16.50;99.90;;;;;;4997252;28;20046;-63
2022/07/07 02:41:03;;;;;;;8.68;3.28;;;18.10;99.90;;;;;;5026369;28;20041;-63
2022/07/07 02:43:29;;;;;;;11.25;3.17;;;16.60;99.90;;;;;;5027892;28;20377;-63
2022/07/07 02:45:54;;;;;;;7.63;2.78;;;16.40;99.90;;;;;;5017192;28;20046;-63
2022/07/07 02:48:24;;;;;;;10.18;2.47;;;16.50;99.90;;;;;;5013521;28;20077;-63
2022/07/07 02:50:50;;;;;;;9.55;2.80;;;16.60;99.90;;;;;;5015266;28;20114;-63
2022/07/07 02:53:16;;;;;;;6.55;2.00;;;16.20;99.90;;;;;;5013514;28;20126;-63
2022/07/07 02:55:43;;;;;;;7.20;2.25;;;16.50;99.90;;;;;;5013789;28;20096;-62
2022/07/07 02:58:10;;;;;;;7.25;2.22;;;16.30;99.90;;;;;;5014688;28;20034;-63
2022/07/07 03:00:36;;;;;;;8.75;2.42;;;16.60;99.90;;;;;;5016772;28;20048;-63
2022/07/07 03:03:04;;;;;;;8.30;2.10;;;16.50;99.90;;;;;;5050168;28;20072;-63
2022/07/07 03:05:30;;;;;;;9.05;2.30;;;16.40;99.90;;;;;;5020421;28;20496;-62
2022/07/07 03:07:56;;;;;;;7.45;2.65;;;16.40;99.90;;;;;;5014788;28;20137;-62
2022/07/07 03:10:22;;;;;;;13.13;3.15;;;16.40;99.90;;;;;;5013506;28;20172;-62
2022/07/07 03:12:47;;;;;;;12.23;2.95;;;16.40;99.90;;;;;;5030971;28;20037;-64
2022/07/07 03:15:13;;;;;;;8.95;2.90;;;16.60;99.90;;;;;;5024923;28;20038;-62
2022/07/07 03:17:44;;;;;;;11.15;2.35;;;16.50;99.90;;;;;;5013419;28;20038;-62
2022/07/07 03:20:12;;;;;;;12.20;2.50;;;16.30;99.90;;;;;;5014711;28;20527;-63
2022/07/07 03:22:38;;;;;;;9.27;2.45;;;16.30;99.90;;;;;;5014344;28;20037;-63
2022/07/07 03:25:05;;;;;;;7.38;2.42;;;16.40;99.90;;;;;;5014636;28;20116;-63
2022/07/07 03:27:31;;;;;;;10.80;2.30;;;16.30;99.90;;;;;;5013134;28;20041;-62
2022/07/07 03:29:57;;;;;;;12.38;2.35;;;16.20;99.90;;;;;;5014412;28;20033;-62
2022/07/07 03:32:22;;;;;;;9.82;2.45;;;16.50;99.90;;;;;;5025026;28;20495;-63
2022/07/07 03:34:48;;;;;;;12.45;2.28;;;16.10;99.90;;;;;;5030763;28;20125;-62
2022/07/07 03:37:13;;;;;;;10.32;2.35;;;16.30;99.90;;;;;;5005713;28;20087;-62
2022/07/07 03:39:39;;;;;;;11.35;2.38;;;16.30;99.90;;;;;;5017263;28;20058;-63
2022/07/07 03:42:05;;;;;;;10.05;1.80;;;16.50;99.90;;;;;;5012849;28;20069;-63
2022/07/07 03:44:30;;;;;;;11.02;2.60;;;16.30;99.90;;;;;;5013099;28;20084;-63
2022/07/07 03:46:56;;;;;;;9.63;1.75;;;16.20;99.90;;;;;;5019129;28;20088;-63
2022/07/07 03:49:21;;;;;;;11.55;1.80;;;16.10;99.90;;;;;;5022715;28;20052;-63
2022/07/07 03:51:47;;;;;;;10.82;1.50;;;16.30;99.90;;;;;;4996402;28;20081;-62
2022/07/07 03:54:12;;;;;;;10.95;1.90;;;16.50;99.90;;;;;;4996503;28;20072;-62
2022/07/07 03:56:39;;;;;;;9.73;2.80;;;16.20;99.90;;;;;;5013606;28;20491;-63
2022/07/07 03:59:05;;;;;;;5.25;1.20;;;16.00;99.90;;;;;;5013827;28;20073;-62
2022/07/07 04:01:30;;;;;;;4.63;1.25;;;16.10;99.90;;;;;;5003579;28;20511;-63
2022/07/07 04:03:56;;;;;;;6.82;1.52;;;16.20;99.90;;;;;;5010023;28;20041;-62
2022/07/07 04:06:22;;;;;;;10.65;1.10;;;16.10;99.90;;;;;;5032069;28;20427;-62
2022/07/07 04:08:47;;;;;;;6.40;1.52;;;16.30;99.90;;;;;;5019207;28;20211;-62
2022/07/07 04:11:13;;;;;;;5.55;1.30;;;16.00;99.90;;;;;;5027141;28;20441;-62
2022/07/07 04:13:39;;;;;;;8.40;1.00;;;16.30;99.90;;;;;;5012128;28;20052;-62
2022/07/07 04:16:04;;;;;;;5.80;1.00;;;15.90;99.90;;;;;;5028628;28;20041;-62
2022/07/07 04:18:30;;;;;;;8.60;1.30;;;16.00;99.90;;;;;;5031677;28;20048;-62
2022/07/07 04:20:55;;;;;;;7.65;1.25;;;15.90;99.90;;;;;;5016206;28;20132;-61
2022/07/07 04:23:21;;;;;;;9.18;1.45;;;15.90;99.90;;;;;;5006606;28;20042;-61
2022/07/07 04:25:46;;;;;;;11.68;1.90;;;15.80;99.90;;;;;;4999519;28;20034;-61
2022/07/07 04:28:12;;;;;;;9.07;1.15;;;15.90;99.90;;;;;;5005824;28;20042;-62
2022/07/07 04:30:38;;;;;;;5.93;1.58;;;15.80;99.90;;;;;;5007708;28;20088;-62
2022/07/07 04:33:03;;;;;;;10.48;1.17;;;15.70;99.90;;;;;;5012290;28;20065;-62
2022/07/07 04:35:29;;;;;;;7.55;1.30;;;15.90;99.90;;;;;;5012266;28;20045;-61
2022/07/07 04:37:54;;;;;;;3.50;0.90;;;15.70;99.90;;;;;;5011196;28;20042;-61
2022/07/07 04:40:20;;;;;;;4.93;1.05;;;16.10;99.90;;;;;;5012624;28;20049;-62
2022/07/07 04:42:45;;;;;;;7.68;1.00;;;15.70;99.90;;;;;;5012678;28;20038;-62
2022/07/07 04:45:11;;;;;;;6.40;1.05;;;15.80;99.90;;;;;;5013040;28;20041;-61
2022/07/07 04:47:41;;;;;;;4.95;0.77;;;15.60;99.90;;;;;;5004429;28;20041;-62
2022/07/07 04:50:11;;;;;;;7.07;0.82;;;15.70;99.90;;;;;;5008299;28;20052;-62
2022/07/07 04:52:37;;;;;;;5.90;0.80;;;15.50;99.90;;;;;;5009855;28;20038;-62
2022/07/07 04:55:04;;;;;;;2.28;0.63;;;15.50;99.90;;;;;;5008622;28;20050;-62
2022/07/07 04:57:30;;;;;;;2.53;0.60;;;15.60;99.90;;;;;;5011806;28;20042;-62
2022/07/07 04:59:55;;;;;;;4.50;0.98;;;15.70;99.90;;;;;;5010735;28;20040;-62
2022/07/07 05:02:21;;;;;;;3.13;0.77;;;15.50;99.90;;;;;;5012201;28;20543;-62
2022/07/07 05:04:49;;;;;;;9.88;1.23;;;15.70;99.90;;;;;;5010120;28;20096;-62
2022/07/07 05:07:15;;;;;;;5.30;1.23;;;;;;;;;;5006342;28;20037;-63
2022/07/07 05:09:40;;;;;;;7.00;1.00;;;15.60;99.90;;;;;;5005259;28;20041;-62
2022/07/07 05:12:06;;;;;;;5.78;1.38;;;15.80;99.90;;;;;;5006624;28;20042;-63
2022/07/07 05:14:32;;;;;;;8.45;1.50;;;16.30;99.90;;;;;;5006795;28;20042;-64
2022/07/07 05:16:58;;;;;;;6.53;1.15;;;16.30;99.90;;;;;;5007927;28;20069;-63
2022/07/07 05:19:24;;;;;;;6.55;1.40;;;16.30;99.90;;;;;;5006355;28;20041;-63
2022/07/07 05:21:49;;;;;;;6.82;1.17;;;16.30;99.90;;;;;;5005522;28;20103;-63
2022/07/07 05:24:15;;;;;;;8.55;0.82;;;16.90;99.90;;;;;;5006492;28;20404;-63
2022/07/07 05:26:41;;;;;;;7.82;1.33;;;16.80;99.90;;;;;;5006454;28;20083;-64
2022/07/07 05:29:06;;;;;;;7.63;1.27;;;16.90;99.90;;;;;;5006173;28;20033;-64
2022/07/07 05:31:32;;;;;;;7.88;1.90;;;16.40;99.90;;;;;;5005738;28;20041;-63
2022/07/07 05:33:57;;;;;;;3.83;0.85;;;16.60;99.90;;;;;;5008142;28;20144;-63
2022/07/07 05:36:23;;;;;;;4.82;1.40;;;16.50;99.90;;;;;;5008313;28;20093;-63
2022/07/07 05:38:50;;;;;;;12.18;2.10;;;16.10;99.90;;;;;;5007852;28;20058;-64
2022/07/07 05:41:16;;;;;;;6.10;1.02;;;16.00;99.90;;;;;;5006385;28;20624;-63
2022/07/07 05:43:42;;;;;;;7.93;1.83;;;16.30;99.90;;;;;;5007134;28;20137;-64
2022/07/07 05:46:08;;;;;;;10.18;1.95;;;16.10;99.90;;;;;;5000921;28;20085;-64
2022/07/07 05:48:33;;;;;;;7.80;1.98;;;16.50;99.90;;;;;;5002474;28;20038;-63
2022/07/07 05:50:59;;;;;;;6.88;1.30;;;16.40;99.90;;;;;;5008096;28;20037;-63
2022/07/07 05:53:24;;;;;;;8.52;1.65;;;16.30;99.90;;;;;;5003539;28;20034;-63
2022/07/07 05:55:50;;;;;;;6.45;1.55;;;16.40;99.90;;;;;;5010404;28;20044;-62
2022/07/07 05:58:16;;;;;;;12.10;1.77;;;16.40;99.90;;;;;;5010673;28;20045;-63
2022/07/07 06:00:42;;;;;;;5.30;1.30;;;16.70;99.90;;;;;;5008136;28;20045;-63
2022/07/07 06:03:07;;;;;;;11.88;1.60;;;16.90;99.90;;;;;;5011277;28;20034;-63
2022/07/07 06:05:33;;;;;;;9.43;1.30;;;17.20;99.90;;;;;;5010675;28;20045;-63
2022/07/07 06:07:59;;;;;;;8.20;1.23;;;17.70;99.90;;;;;;5013573;28;20057;-63
2022/07/07 06:10:24;;;;;;;9.27;2.70;;;17.80;99.90;;;;;;5014324;28;20072;-63
2022/07/07 06:12:50;;;;;;;5.72;1.60;;;17.70;99.90;;;;;;5014431;28;20053;-63
2022/07/07 06:15:17;;;;;;;5.95;1.00;;;17.50;99.90;;;;;;5015572;28;20037;-63
2022/07/07 06:17:43;;;;;;;8.27;1.15;;;17.40;99.90;;;;;;5014132;28;20038;-63
2022/07/07 06:20:09;;;;;;;7.78;1.25;;;17.10;99.90;;;;;;5014444;28;20026;-63
2022/07/07 06:22:35;;;;;;;6.60;1.20;;;17.00;99.90;;;;;;5015365;28;20034;-63
2022/07/07 06:25:01;;;;;;;4.20;0.93;;;16.90;99.90;;;;;;5015489;28;20571;-63
2022/07/07 06:27:26;;;;;;;9.40;1.30;;;17.20;99.90;;;;;;5015338;28;20042;-63
2022/07/07 06:29:55;;;;;;;4.47;1.33;;;17.70;99.90;;;;;;5015364;28;20091;-63
2022/07/07 06:32:21;;;;;;;6.13;1.20;;;18.00;99.90;;;;;;5011548;28;20046;-63
2022/07/07 06:34:47;;;;;;;5.72;1.00;;;18.60;99.90;;;;;;5015208;28;20418;-63
2022/07/07 06:37:12;;;;;;;4.90;0.93;;;18.40;99.90;;;;;;5014848;28;20034;-63
2022/07/07 06:39:38;;;;;;;6.68;0.68;;;18.30;99.90;;;;;;5011739;28;20046;-63
2022/07/07 06:42:05;;;;;;;6.07;0.85;;;18.10;99.90;;;;;;5012455;28;20037;-63
2022/07/07 06:44:31;;;;;;;3.80;0.95;;;17.80;99.90;;;;;;5014888;28;20500;-63
2022/07/07 06:47:00;;;;;;;4.45;0.80;;;17.70;99.90;;;;;;5014751;28;20045;-63
2022/07/07 06:49:27;;;;;;;7.63;1.02;;;17.60;99.90;;;;;;5013971;28;20446;-63
2022/07/07 06:51:54;;;;;;;5.85;1.33;;;17.30;99.90;;;;;;5027469;28;20095;-63
2022/07/07 06:54:19;;;;;;;4.38;1.17;;;17.20;99.90;;;;;;5019675;28;20122;-63
2022/07/07 06:56:45;;;;;;;5.25;1.00;;;17.30;99.90;;;;;;5022630;28;20476;-63
2022/07/07 06:59:10;;;;;;;4.85;0.73;;;17.40;99.90;;;;;;5014882;28;20037;-63
2022/07/07 07:01:36;;;;;;;6.88;1.58;;;17.60;99.90;;;;;;5014924;28;20042;-63
2022/07/07 07:04:02;;;;;;;8.55;0.60;;;17.90;99.90;;;;;;5015114;28;20042;-63
2022/07/07 07:06:28;;;;;;;3.05;0.63;;;17.90;99.90;;;;;;5013778;28;20081;-62
2022/07/07 07:08:58;;;;;;;4.70;0.88;;;18.10;99.90;;;;;;5014703;28;20046;-63
2022/07/07 07:11:24;;;;;;;6.07;0.95;;;18.00;99.90;;;;;;5026532;28;20081;-63
2022/07/07 07:13:50;;;;;;;4.20;0.70;;;18.00;99.90;;;;;;5015215;28;20085;-63
2022/07/07 07:16:16;;;;;;;4.43;1.00;;;18.10;99.90;;;;;;5013236;28;20084;-63
2022/07/07 07:18:42;;;;;;;4.07;0.70;;;17.90;99.90;;;;;;5013818;28;20534;-63
2022/07/07 07:21:07;;;;;;;5.75;1.00;;;17.60;99.90;;;;;;5013189;28;20073;-63
2022/07/07 07:23:33;;;;;;;4.82;0.63;;;17.90;99.90;;;;;;5014920;28;20112;-63
2022/07/07 07:25:59;;;;;;;4.70;1.27;;;17.90;99.90;;;;;;5014592;28;20057;-63
2022/07/07 07:28:24;;;;;;;5.13;1.23;;;17.70;99.90;;;;;;5027616;28;20073;-63
2022/07/07 07:30:50;;;;;;;4.38;0.65;;;17.80;99.90;;;;;;5013326;28;20233;-63
2022/07/07 07:33:16;;;;;;;4.93;0.60;;;17.50;99.90;;;;;;5019017;28;20087;-63
2022/07/07 07:35:42;;;;;;;7.80;0.90;;;17.50;99.90;;;;;;5023449;28;20041;-63
2022/07/07 07:38:08;;;;;;;4.75;0.95;;;17.60;99.90;;;;;;5013674;28;20041;-64
2022/07/07 07:40:33;;;;;;;6.18;1.00;;;17.40;99.90;;;;;;5012686;28;20053;-63
2022/07/07 07:42:59;;;;;;;7.03;1.17;;;16.90;99.90;;;;;;5014012;28;20037;-63
2022/07/07 07:45:25;;;;;;;7.20;1.30;;;17.10;99.90;;;;;;5014181;28;20038;-63
2022/07/07 07:47:51;;;;;;;5.45;0.68;;;16.90;99.90;;;;;;5025179;28;20106;-63
2022/07/07 07:50:19;;;;;;;5.45;0.80;;;16.90;99.90;;;;;;5013910;28;20046;-63
2022/07/07 07:52:46;;;;;;;6.32;1.10;;;17.00;99.90;;;;;;5013827;28;20055;-63
2022/07/07 07:55:17;;;;;;;4.53;0.90;;;17.30;99.90;;;;;;5013458;28;20480;-63
2022/07/07 07:57:43;;;;;;;6.22;1.25;;;17.30;99.90;;;;;;5013883;28;20034;-63
2022/07/07 08:00:11;;;;;;;4.93;1.20;;;17.30;99.90;;;;;;5014145;28;20044;-63
2022/07/07 08:02:36;;;;;;;7.25;0.90;;;17.30;99.90;;;;;;5012388;28;20048;-63
2022/07/07 08:05:02;;;;;;;6.75;0.73;;;17.40;99.90;;;;;;5013767;28;20038;-63
2022/07/07 08:07:28;;;;;;;9.35;1.35;;;17.50;99.90;;;;;;5013377;28;20052;-63
2022/07/07 08:09:53;;;;;;;4.88;0.88;;;17.80;99.90;;;;;;5012156;28;20478;-63
2022/07/07 08:12:19;;;;;;;6.43;1.02;;;17.50;99.90;;;;;;5026029;28;20052;-63
2022/07/07 08:14:45;;;;;;;3.90;0.75;;;17.70;99.90;;;;;;5013573;28;20038;-63
2022/07/07 08:17:11;;;;;;;4.25;0.77;;;17.90;99.90;;;;;;5012465;28;20498;-63
2022/07/07 08:19:36;;;;;;;7.20;1.02;;;17.70;99.90;;;;;;5027390;28;20504;-63
2022/07/07 08:22:02;;;;;;;4.35;1.00;;;17.70;99.90;;;;;;5013320;28;20380;-63
2022/07/07 08:24:28;;;;;;;4.07;0.60;;;17.90;99.90;;;;;;5013868;28;20046;-63
2022/07/07 08:26:53;;;;;;;5.03;0.85;;;18.70;99.90;;;;;;5025240;28;20042;-63
2022/07/07 08:29:19;;;;;;;1.98;0.82;;;17.50;99.90;;;;;;4995241;28;20046;-63
2022/07/07 08:31:44;;;;;;;6.03;0.80;;;17.60;99.90;;;;;;5012825;28;20091;-63
2022/07/07 08:34:10;;;;;;;6.78;1.17;;;17.40;99.90;;;;;;5011976;28;20480;-63
2022/07/07 08:36:35;;;;;;;5.00;0.80;;;17.40;99.90;;;;;;5011618;28;20506;-63
2022/07/07 08:39:01;;;;;;;5.68;0.80;;;17.30;99.90;;;;;;5022396;28;20519;-63
2022/07/07 08:41:27;;;;;;;3.72;0.80;;;17.10;99.90;;;;;;5016865;28;20042;-63
2022/07/07 08:43:52;;;;;;;3.45;0.75;;;17.40;99.90;;;;;;5011883;28;20496;-63
2022/07/07 08:46:18;;;;;;;6.15;0.98;;;17.30;99.90;;;;;;5018296;28;20049;-63
2022/07/07 08:48:44;;;;;;;6.32;1.20;;;17.60;99.90;;;;;;5026469;28;20431;-63
2022/07/07 08:51:10;;;;;;;7.57;1.05;;;17.80;99.90;;;;;;5011389;28;20042;-63
2022/07/07 08:53:37;;;;;;;8.35;1.52;;;17.80;99.90;;;;;;5011513;28;20061;-63
2022/07/07 08:56:07;;;;;;;5.88;1.08;;;18.00;99.90;;;;;;5006572;28;20070;-63
2022/07/07 08:58:37;;;;;;;4.70;1.08;;;18.00;99.90;;;;;;5004959;28;20088;-62
2022/07/07 09:01:05;;;;;;;8.35;1.55;;;18.00;99.90;;;;;;5011620;28;20467;-62
2022/07/07 09:03:31;;;;;;;8.90;1.17;;;17.70;99.90;;;;;;5010083;28;20056;-63
2022/07/07 09:05:58;;;;;;;7.57;1.30;;;17.80;99.90;;;;;;5007262;28;20037;-62
2022/07/07 09:08:25;;;;;;;3.05;1.10;;;17.70;99.90;;;;;;5008716;28;20124;-62
2022/07/07 09:10:51;;;;;;;5.45;1.13;;;17.70;99.90;;;;;;5009513;28;20487;-62
2022/07/07 09:13:32;;;;;;;8.70;2.30;;;17.70;99.90;;;;;;5025167;28;20095;-62
2022/07/07 09:16:04;;;;;;;6.80;1.80;;;18.00;99.90;;;;;;5009509;28;20033;-64
2022/07/07 09:18:38;;;;;;;12.70;1.40;;;17.70;99.90;;;;;;5012591;28;20041;-63
2022/07/07 09:21:06;;;;;;;8.30;0.95;;;17.90;99.90;;;;;;5006341;28;20093;-64
2022/07/07 09:23:33;;;;;;;6.53;1.17;;;18.10;99.90;;;;;;5011037;28;20046;-64
2022/07/07 09:26:00;;;;;;;6.00;1.10;;;18.20;99.90;;;;;;5012097;28;20048;-64
2022/07/07 09:28:26;;;;;;;7.20;1.48;;;18.30;99.90;;;;;;5010935;28;20492;-63
2022/07/07 09:30:53;;;;;;;6.35;1.10;;;18.10;99.90;;;;;;5011235;28;20089;-63
2022/07/07 09:33:23;;;;;;;3.03;1.23;;;17.90;99.90;;;;;;4994408;28;20037;-64
2022/07/07 09:38:36;;;;;;;7.45;2.20;;;17.70;99.90;;;;;;5006382;28;20112;-64
2022/07/07 09:41:12;;;;;;;7.93;1.48;;;17.70;99.90;;;;;;5012760;28;20061;-64
2022/07/07 09:43:44;;;;;;;7.28;1.30;;;17.70;99.90;;;;;;5010164;28;20034;-64
2022/07/07 09:46:16;;;;;;;7.20;1.25;;;17.70;99.90;;;;;;5008360;28;20049;-64
2022/07/07 09:48:53;;;;;;;5.93;1.38;;;18.00;99.90;;;;;;5013028;28;20038;-64
2022/07/07 09:51:26;;;;;;;7.15;2.45;;;18.20;99.90;;;;;;5012360;28;20061;-64
2022/07/07 09:54:05;;;;;;;3.80;1.25;;;18.30;99.90;;;;;;5010751;28;20128;-64
2022/07/07 09:56:44;;;;;;;5.63;1.13;;;18.10;99.90;;;;;;5014084;28;20060;-64
2022/07/07 09:59:15;;;;;;;6.75;1.33;;;17.80;99.90;;;;;;5013827;28;20045;-64
2022/07/07 10:01:43;;;;;;;6.53;1.63;;;17.70;99.90;;;;;;5014829;28;20384;-64
2022/07/07 10:04:14;;;;;;;4.75;1.23;;;17.70;99.90;;;;;;5013547;28;20038;-64
2022/07/07 10:06:41;;;;;;;3.92;1.20;;;17.60;99.90;;;;;;5013190;28;20128;-64
2022/07/07 10:09:09;;;;;;;6.35;1.38;;;17.60;99.90;;;;;;5015042;28;20037;-64
2022/07/07 10:11:36;;;;;;;8.35;1.23;;;17.90;99.90;;;;;;5013469;28;20132;-64
2022/07/07 10:14:22;;;;;;;3.65;0.73;;;17.90;99.90;;;;;;5013478;28;20041;-64
2022/07/07 10:16:50;;;;;;;5.75;0.80;;;17.60;99.90;;;;;;5021617;28;20049;-64
2022/07/07 10:19:18;;;;;;;3.80;0.88;;;17.90;99.90;;;;;;5013128;28;20053;-64
2022/07/07 10:21:46;;;;;;;6.30;1.40;;;17.50;99.90;;;;;;5013426;28;20048;-64
2022/07/07 10:24:14;;;;;;;7.85;1.38;;;17.70;99.90;;;;;;5014820;28;20041;-64
2022/07/07 10:26:43;;;;;;;4.65;0.98;;;17.50;99.90;;;;;;5014654;28;20042;-64
2022/07/07 10:29:10;;;;;;;4.55;0.80;;;17.50;99.90;;;;;;5014674;28;20040;-64
2022/07/07 10:31:37;;;;;;;5.40;1.10;;;17.60;99.90;;;;;;5014133;28;20062;-64
2022/07/07 10:34:12;;;;;;;7.07;1.13;;;17.60;99.90;;;;;;5014635;28;20042;-64
2022/07/07 10:36:46;;;;;;;;;;;17.70;99.90;;;;;;5014776;28;20092;-64
2022/07/07 10:39:23;;;;;;;8.18;2.67;;;17.90;99.90;;;;;;5002483;28;19973;-64
2022/07/07 10:42:14;;;;;;;7.72;1.33;;;17.60;99.90;;;;;;5013012;28;20046;-64
2022/07/07 10:44:41;;;;;;;14.13;2.20;;;17.70;99.90;;;;;;5011662;28;20030;-64
2022/07/07 10:47:16;;;;;;;12.60;2.10;;;17.50;99.90;;;;;;5005418;28;20060;-64
2022/07/07 10:49:51;;;;;;;17.00;3.08;;;17.30;99.90;;;;;;4983895;28;20039;-63
2022/07/07 10:52:18;;;;;;;8.88;1.95;;;16.90;99.90;;;;;;5009006;28;20044;-64
2022/07/07 10:54:54;;;;;;;11.10;1.92;;;16.80;99.90;;;;;;5012065;28;20041;-64
2022/07/07 10:57:25;;;;;;;18.70;2.72;;;17.00;99.90;;;;;;5011681;28;20048;-64
2022/07/07 11:00:01;;;;;;;14.77;1.63;;;17.20;99.90;;;;;;5014015;28;20040;-64
2022/07/07 11:02:30;;;;;;;14.35;2.25;;;17.00;99.90;;;;;;5012358;28;20050;-64
2022/07/07 11:04:57;;;;;;;11.65;2.33;;;17.00;99.90;;;;;;5011532;28;20555;-64
2022/07/07 11:07:25;;;;;;;11.77;1.98;;;17.00;99.90;;;;;;5013297;28;20048;-64
2022/07/07 11:09:57;;;;;;;16.52;3.05;;;17.10;99.90;;;;;;5012311;28;20038;-64
2022/07/07 11:12:53;;;;;;;14.27;2.42;;;17.10;99.90;;;;;;5013729;28;20042;-64
2022/07/07 11:15:21;;;;;;;10.07;1.58;;;17.20;99.90;;;;;;5022047;28;20575;-64
2022/07/07 11:18:15;;;;;;;16.38;2.70;;;17.10;99.90;;;;;;5011928;28;20042;-64
2022/07/07 11:21:02;;;;;;;14.50;2.30;;;17.00;99.90;;;;;;5000780;28;20035;-64
2022/07/07 11:23:44;;;;;;;16.48;3.50;;;16.90;99.90;;;;;;5011943;28;20392;-64
2022/07/07 11:26:10;;;;;;;14.05;1.92;;;17.20;99.90;;;;;;5011895;28;20073;-64
2022/07/07 11:28:37;;;;;;;20.98;3.17;;;16.90;99.90;;;;;;5012083;28;20050;-64
2022/07/07 11:31:07;;;;;;;12.95;2.70;;;17.20;99.90;;;;;;5011771;28;20492;-64
2022/07/07 11:33:33;;;;;;;12.68;2.22;;;17.10;99.90;;;;;;5013274;28;20469;-64
2022/07/07 11:36:08;;;;;;;19.73;2.90;;;17.30;99.90;;;;;;5012605;28;20506;-64
2022/07/07 11:38:34;;;;;;;12.02;2.33;;;17.30;99.90;;;;;;5012945;28;20061;-65
2022/07/07 11:40:59;;;;;;;15.57;2.20;;;17.40;99.90;;;;;;5012926;28;20033;-64
2022/07/07 11:43:25;;;;;;;11.07;1.75;;;17.10;99.90;;;;;;5013236;28;20117;-64
2022/07/07 11:45:51;;;;;;;9.60;1.52;;;17.40;99.90;;;;;;5008304;28;20053;-63
2022/07/07 11:48:17;;;;;;;11.48;2.22;;;17.20;99.90;;;;;;5008781;28;20136;-64
2022/07/07 11:50:45;;;;;;;13.00;1.80;;;17.50;99.90;;;;;;4996591;28;20038;-64
2022/07/07 11:53:11;;;;;;;8.90;1.80;;;17.60;99.90;;;;;;5010024;28;20049;-64
2022/07/07 11:55:37;;;;;;;10.77;1.30;;;17.30;99.90;;;;;;5009102;28;20065;-63
2022/07/07 11:58:05;;;;;;;9.50;1.60;;;19.50;99.90;;;;;;5009258;28;20468;-64
2022/07/07 12:00:36;;;;;;;10.73;1.80;;;17.30;99.90;;;;;;5008056;28;20495;-63
2022/07/07 12:03:04;;;;;;;10.35;2.22;;;17.50;99.90;;;;;;5009241;28;20167;-64
2022/07/07 12:05:31;;;;;;;9.55;2.25;;;17.50;99.90;;;;;;5007818;28;20054;-64
2022/07/07 12:08:05;;;;;;;12.00;2.22;;;17.40;99.90;;;;;;5008789;28;20763;-64
2022/07/07 12:10:33;;;;;;;13.93;2.10;;;17.60;99.90;;;;;;5007575;28;20053;-64
2022/07/07 12:13:02;;;;;;;13.82;3.10;;;17.40;99.90;;;;;;5007885;28;20124;-64
2022/07/07 12:15:30;;;;;;;14.55;1.90;;;17.30;99.90;;;;;;5009126;28;20184;-63
2022/07/07 12:17:57;;;;;;;15.68;2.05;;;17.40;99.90;;;;;;5007427;28;20053;-63
2022/07/07 12:20:23;;;;;;;9.57;1.63;;;17.40;99.90;;;;;;5009346;28;20038;-63
2022/07/07 12:22:55;;;;;;;11.93;2.58;;;17.40;99.90;;;;;;5008386;28;20041;-63
2022/07/07 12:25:27;;;;;;;17.48;1.98;;;17.60;99.90;;;;;;5008100;28;20510;-63
2022/07/07 12:27:57;;;;;;;15.18;1.80;;;17.60;99.90;;;;;;5009182;28;20041;-64
2022/07/07 12:30:24;;;;;;;11.43;2.15;;;17.50;99.90;;;;;;5006484;28;20053;-63
2022/07/07 12:32:50;;;;;;;13.48;2.70;;;17.40;99.90;;;;;;5007487;28;20046;-64
2022/07/07 12:35:31;;;;;;;15.82;2.70;;;17.20;99.90;;;;;;5010549;28;20081;-64
2022/07/07 12:37:58;;;;;;;20.70;3.03;;;17.20;99.90;;;;;;5010560;28;20095;-63
2022/07/07 12:40:25;;;;;;;12.23;2.78;;;17.00;99.90;;;;;;5011729;28;20081;-64
2022/07/07 12:42:51;;;;;;;15.23;3.08;;;17.20;99.90;;;;;;5011890;28;20446;-64
2022/07/07 12:45:18;;;;;;;10.13;2.08;;;16.90;99.90;;;;;;5010534;28;20046;-64
2022/07/07 12:47:54;;;;;;;17.27;2.47;;;17.10;99.90;;;;;;5009021;28;20056;-64